Time;durP1;ratioP1;P1;durP2;ratioP2;P2;SDS_P1;SDS_P2;PMS_P1;PMS_P2;Temp;Humidity;BMP_temperature;BMP_pressure;BME280_temperature;BME280_humidity;BME280_pressure;Samples;Min_cycle;Max_cycle;Signal;HPM_P1;HPM_P2
2020/12/31 00:04:32;;;;;;;8.98;6.05;;;;;;;1.37;72.67;96784.88;10193314;29;20064;-80
2020/12/31 00:09:55;;;;;;;8.45;6.10;;;;;;;1.57;71.78;96793.41;10205296;29;20064;-80
2020/12/31 00:15:16;;;;;;;8.63;6.10;;;;;;;1.69;71.91;96797.91;10179688;29;20064;-80
2020/12/31 00:20:39;;;;;;;9.88;6.38;;;;;;;1.76;71.73;96801.94;10181857;29;20076;-81
2020/12/31 00:26:00;;;;;;;10.80;7.18;;;;;;;1.65;71.51;96805.84;10206332;29;20063;-80
2020/12/31 00:31:22;;;;;;;9.65;7.15;;;;;;;1.52;71.32;96805.34;10194161;29;20063;-80
2020/12/31 00:36:46;;;;;;;11.10;6.95;;;;;;;1.40;72.02;96808.50;10205758;29;20168;-80
2020/12/31 00:42:08;;;;;;;10.55;7.03;;;;;;;1.27;72.40;96816.97;10207652;29;20092;-80
2020/12/31 00:47:29;;;;;;;13.05;7.90;;;;;;;1.16;72.60;96817.38;10181527;29;20092;-80
2020/12/31 00:52:50;;;;;;;13.82;8.10;;;;;;;0.99;72.61;96814.47;10190055;29;20091;-79
2020/12/31 00:58:17;;;;;;;12.60;8.05;;;;;;;0.86;72.84;96813.38;10193784;29;20415;-80
2020/12/31 01:03:41;;;;;;;14.02;9.27;;;;;;;0.79;73.07;96813.41;10191003;29;20052;-80
2020/12/31 01:09:08;;;;;;;15.00;9.35;;;;;;;0.74;73.12;96815.06;10192622;29;20095;-80
2020/12/31 01:14:35;;;;;;;14.05;9.40;;;;;;;0.68;73.79;96825.50;10194028;29;20060;-80
2020/12/31 01:19:57;;;;;;;12.82;9.10;;;;;;;0.66;72.57;96828.06;10177335;29;20052;-81
2020/12/31 01:25:19;;;;;;;13.80;8.98;;;;;;;0.61;72.97;96823.50;10194532;29;20070;-80
2020/12/31 01:30:43;;;;;;;14.57;8.35;;;;;;;0.56;72.96;96829.88;10195359;29;20064;-81
2020/12/31 01:36:09;;;;;;;13.00;8.70;;;;;;;0.56;73.14;96835.38;10204024;29;20068;-80
2020/12/31 01:41:35;;;;;;;14.88;9.30;;;;;;;0.57;73.17;96834.81;10220357;29;20090;-80
2020/12/31 01:47:00;;;;;;;14.13;9.10;;;;;;;0.62;73.00;96840.69;10206279;29;20064;-80
2020/12/31 01:52:25;;;;;;;13.15;8.85;;;;;;;0.64;73.27;96847.09;10194010;29;20060;-80
2020/12/31 01:57:52;;;;;;;15.18;9.77;;;;;;;0.63;73.15;96848.38;10193350;29;20068;-80
2020/12/31 02:03:16;;;;;;;14.52;9.10;;;;;;;0.59;73.18;96855.53;10195784;29;20059;-80
2020/12/31 02:08:47;;;;;;;14.23;9.82;;;;;;;0.51;72.90;96856.25;10190909;29;20119;-80
2020/12/31 02:14:23;;;;;;;18.08;10.15;;;;;;;0.41;73.96;96860.09;10208067;29;20063;-80
2020/12/31 02:19:49;;;;;;;14.75;9.80;;;;;;;0.37;73.46;96854.22;10194593;29;20061;-80
2020/12/31 02:25:14;;;;;;;15.88;10.48;;;;;;;0.29;73.56;96856.97;10166109;29;20066;-80
2020/12/31 02:30:42;;;;;;;12.90;8.85;;;;;;;0.19;73.88;96848.53;10194885;29;20068;-80
2020/12/31 02:36:13;;;;;;;13.80;9.95;;;;;;;0.10;73.92;96859.31;10193678;29;20064;-80
2020/12/31 02:41:44;;;;;;;17.13;10.40;;;;;;;0.02;73.41;96853.81;10166659;29;20056;-81
2020/12/31 02:47:21;;;;;;;13.18;9.43;;;;;;;-0.03;73.89;96855.44;10197668;29;20119;-80
2020/12/31 02:52:48;;;;;;;14.50;9.55;;;;;;;-0.10;74.65;96855.41;10182111;29;20060;-80
2020/12/31 02:58:14;;;;;;;11.40;8.93;;;;;;;-0.15;74.55;96853.56;10208790;29;20153;-80
2020/12/31 03:03:42;;;;;;;13.65;9.45;;;;;;;-0.17;74.28;96853.41;10188811;29;20070;-81
2020/12/31 03:09:13;;;;;;;15.45;9.63;;;;;;;-0.23;73.92;96848.06;10202198;29;20052;-80
2020/12/31 03:14:52;;;;;;;12.07;9.00;;;;;;;-0.32;74.70;96841.06;10189151;29;20087;-79
2020/12/31 03:20:18;;;;;;;13.73;9.40;;;;;;;-0.36;74.77;96848.94;10202346;29;20056;-81
2020/12/31 03:26:01;;;;;;;15.13;9.02;;;;;;;-0.37;75.21;96852.97;10190759;29;20093;-80
2020/12/31 03:31:45;;;;;;;13.13;9.13;;;;;;;-0.35;74.83;96853.16;10202676;29;20056;-81
2020/12/31 03:37:32;;;;;;;13.20;9.38;;;;;;;-0.22;74.72;96848.78;10191824;29;20056;-80
2020/12/31 03:43:00;;;;;;;13.75;9.65;;;;;;;0.10;74.88;96857.31;10188497;29;20060;-80
2020/12/31 03:48:38;;;;;;;13.77;10.25;;;;;;;0.19;74.84;96851.28;10201852;29;20072;-81
2020/12/31 03:54:21;;;;;;;12.93;9.55;;;;;;;-0.03;74.83;96838.25;10212205;29;20064;-80
2020/12/31 04:00:00;;;;;;;10.60;8.73;;;;;;;-0.21;75.22;96833.78;10186601;29;20075;-80
2020/12/31 04:05:28;;;;;;;14.05;9.48;;;;;;;-0.28;76.03;96850.97;10212410;29;20067;-80
2020/12/31 04:11:14;;;;;;;12.50;9.45;;;;;;;-0.42;75.65;96847.63;10199961;29;20071;-81
2020/12/31 04:16:52;;;;;;;14.02;9.48;;;;;;;-0.51;75.94;96851.59;10183586;29;20118;-81
2020/12/31 04:22:45;;;;;;;13.88;9.68;;;;;;;-0.56;75.87;96849.78;10200976;29;20058;-80
2020/12/31 04:28:39;;;;;;;12.77;9.60;;;;;;;-0.60;75.66;96855.59;10168302;29;20068;-79
2020/12/31 04:34:14;;;;;;;12.43;8.82;;;;;;;-0.63;75.75;96850.47;10222353;29;20064;-82
2020/12/31 04:39:39;;;;;;;13.35;9.18;;;;;;;-0.63;75.95;96862.16;10203218;29;20064;-81
2020/12/31 04:45:08;;;;;;;12.63;9.25;;;;;;;-0.66;75.51;96852.28;10197016;29;20494;-81
2020/12/31 04:50:47;;;;;;;15.23;9.57;;;;;;;-0.70;75.78;96864.84;10187878;29;20517;-81
2020/12/31 04:56:28;;;;;;;13.32;9.57;;;;;;;-0.76;75.83;96872.50;10204950;29;20067;-81
2020/12/31 05:02:18;;;;;;;12.13;8.93;;;;;;;-0.79;75.90;96879.78;10140340;29;20053;-82
2020/12/31 05:07:49;;;;;;;13.75;8.63;;;;;;;-0.84;76.26;96879.94;10171397;29;20049;-81
2020/12/31 05:13:45;;;;;;;11.77;8.25;;;;;;;-0.84;76.24;96890.91;10023789;29;20157;-81
2020/12/31 05:19:47;;;;;;;14.70;9.45;;;;;;;-0.87;76.20;96898.94;10014211;29;20046;-82
2020/12/31 05:25:17;;;;;;;11.45;7.72;;;;;;;-0.82;76.31;96913.00;9996208;29;20062;-82
2020/12/31 05:37:34;;;;;;;;;;;;;;;;;;;;;
2020/12/31 05:50:54;;;;;;;;;;;;;;;;;;;;;
2020/12/31 05:57:02;;;;;;;;;;;;;;;;;;;;;
2020/12/31 06:24:08;;;;;;;;;;;;;;;;;;;;;
2020/12/31 06:30:19;;;;;;;13.18;9.20;;;;;;;-0.57;77.37;96951.75;10093962;29;20248;-82
2020/12/31 06:37:18;;;;;;;;;;;;;;;;;;;;;
2020/12/31 06:43:39;;;;;;;13.52;9.60;;;;;;;-0.54;77.03;96953.41;10026436;29;19909;-82
2020/12/31 06:50:18;;;;;;;13.77;9.93;;;;;;;-0.57;76.94;96949.00;10183329;29;20087;-82
2020/12/31 06:58:24;;;;;;;15.02;9.63;;;;;;;-0.41;77.53;96954.00;10184266;29;20060;-80
2020/12/31 07:28:35;;;;;;;14.32;9.60;;;;;;;0.99;75.53;96949.88;11829632;23;20072;-80
2020/12/31 07:34:26;;;;;;;13.70;9.20;;;;;;;1.18;74.96;96954.28;10147718;29;20065;-77
2020/12/31 07:39:46;;;;;;;13.90;9.00;;;;;;;1.39;74.75;96960.31;10144720;29;20550;-76
2020/12/31 07:45:06;;;;;;;13.55;9.68;;;;;;;1.56;74.58;96949.47;10143925;29;20068;-77
2020/12/31 07:50:26;;;;;;;16.40;10.77;;;;;;;1.66;74.20;96955.13;10128589;29;20067;-77
2020/12/31 07:55:50;;;;;;;17.40;11.05;;;;;;;1.89;74.57;96949.56;10148247;29;20086;-78
2020/12/31 08:01:10;;;;;;;16.60;10.57;;;;;;;2.85;74.58;96950.19;10276446;23;20055;-79
2020/12/31 08:06:30;;;;;;;16.60;10.25;;;;;;;10.79;66.86;96941.56;10178505;29;20064;-78
2020/12/31 08:11:52;;;;;;;13.40;9.23;;;;;;;10.97;60.50;96947.41;10204588;29;20099;-78
2020/12/31 08:17:16;;;;;;;10.63;8.10;;;;;;;8.57;63.13;96933.63;10156924;29;20072;-78
2020/12/31 08:22:40;;;;;;;12.65;8.25;;;;;;;6.42;65.34;96931.97;10184343;29;20521;-77
2020/12/31 08:28:07;;;;;;;10.60;8.15;;;;;;;5.27;66.62;96927.81;10154209;29;20414;-77
2020/12/31 08:33:39;;;;;;;11.35;8.32;;;;;;;4.77;69.26;96927.50;10185051;29;20067;-81
2020/12/31 08:39:00;;;;;;;10.68;7.82;;;;;;;5.64;69.18;96927.75;10173903;29;20062;-77
2020/12/31 08:44:19;;;;;;;11.75;8.30;;;;;;;6.83;69.24;96932.00;10182563;29;20067;-79
2020/12/31 08:49:39;;;;;;;13.18;9.40;;;;;;;10.47;71.18;96928.66;10154844;29;20557;-78
2020/12/31 08:55:10;;;;;;;14.63;9.75;;;;;;;20.62;61.40;96927.09;10169485;29;20124;-73
2020/12/31 09:00:36;;;;;;;13.48;9.10;;;;;;;27.54;43.68;96922.59;10164882;29;20060;-74
2020/12/31 09:05:57;;;;;;;10.95;8.73;;;;;;;28.68;34.62;96914.53;10178754;29;20566;-73
2020/12/31 09:11:24;;;;;;;9.43;7.57;;;;;;;30.59;28.98;96909.84;10165439;29;20060;-73
2020/12/31 09:16:44;;;;;;;8.98;6.82;;;;;;;33.68;20.65;96914.78;10164108;29;20462;-75
2020/12/31 09:22:13;;;;;;;8.98;6.90;;;;;;;32.34;19.14;96925.19;10163868;29;20063;-72
2020/12/31 09:27:32;;;;;;;8.02;6.82;;;;;;;33.82;16.50;96908.47;10191548;29;20398;-74
2020/12/31 09:32:52;;;;;;;8.15;6.80;;;;;;;33.13;15.07;96910.28;10151194;29;20063;-75
2020/12/31 09:38:12;;;;;;;9.35;6.93;;;;;;;33.44;14.82;96910.63;10177709;29;20064;-75
2020/12/31 09:43:32;;;;;;;8.45;7.30;;;;;;;34.53;13.07;96898.50;10178167;29;20056;-74
2020/12/31 09:48:51;;;;;;;10.10;8.18;;;;;;;27.48;13.63;96907.63;10190895;29;20056;-75
2020/12/31 09:54:11;;;;;;;11.27;8.40;;;;;;;20.08;21.27;96893.63;10177206;29;20112;-74
2020/12/31 09:59:31;;;;;;;9.68;8.35;;;;;;;18.87;20.78;96887.75;10177877;29;20060;-74
2020/12/31 10:04:51;;;;;;;9.43;7.78;;;;;;;21.34;22.19;96884.13;10177593;29;20096;-74
2020/12/31 10:10:11;;;;;;;8.88;7.97;;;;;;;27.31;18.96;96873.47;10179152;29;20407;-74
2020/12/31 10:15:30;;;;;;;10.15;7.97;;;;;;;26.51;17.34;96879.28;10185092;29;20084;-74
2020/12/31 10:20:51;;;;;;;9.48;7.15;;;;;;;23.04;20.26;96866.38;10184670;29;20064;-74
2020/12/31 10:26:11;;;;;;;10.88;8.48;;;;;;;22.48;21.21;96865.31;10185577;29;20383;-75
2020/12/31 10:31:31;;;;;;;10.95;8.85;;;;;;;19.86;22.60;96857.13;10170136;29;20060;-74
2020/12/31 10:36:52;;;;;;;9.20;8.18;;;;;;;17.93;24.52;96850.97;10171272;29;20075;-74
2020/12/31 10:42:11;;;;;;;9.80;8.23;;;;;;;16.30;26.12;96840.78;10170475;29;20060;-76
2020/12/31 10:47:31;;;;;;;9.63;8.20;;;;;;;15.05;27.54;96834.50;10168499;29;20134;-76
2020/12/31 10:52:51;;;;;;;8.55;7.43;;;;;;;14.22;28.39;96826.50;10168235;29;20064;-74
2020/12/31 10:58:11;;;;;;;10.38;7.80;;;;;;;13.49;29.46;96813.09;10183126;29;20510;-74
2020/12/31 11:03:31;;;;;;;9.05;7.55;;;;;;;13.05;30.26;96804.25;10167813;29;20067;-77
2020/12/31 11:08:51;;;;;;;9.70;7.63;;;;;;;12.46;31.39;96804.47;10168201;29;20122;-73
2020/12/31 11:14:11;;;;;;;9.60;7.63;;;;;;;11.91;32.45;96801.22;10181369;29;20087;-76
2020/12/31 11:19:30;;;;;;;8.95;7.65;;;;;;;11.61;33.50;96792.78;10169359;29;20060;-77
2020/12/31 11:24:53;;;;;;;9.02;7.90;;;;;;;11.16;33.52;96787.81;10182748;29;20067;-76
2020/12/31 11:30:12;;;;;;;10.27;9.10;;;;;;;10.91;34.74;96784.44;10200617;29;20139;-79
2020/12/31 11:35:32;;;;;;;12.25;9.50;;;;;;;10.55;35.57;96775.63;10195729;29;20068;-79
2020/12/31 11:41:10;;;;;;;11.10;9.18;;;;;;;10.35;36.50;96766.94;10184254;29;20044;-76
2020/12/31 11:46:32;;;;;;;13.68;9.45;;;;;;;10.06;36.32;96747.22;10170548;29;20482;-78
2020/12/31 11:51:57;;;;;;;12.50;9.32;;;;;;;9.62;37.84;96743.44;10168010;29;20406;-76
2020/12/31 11:57:16;;;;;;;14.45;10.20;;;;;;;9.26;39.11;96742.88;10180042;29;20537;-76
2020/12/31 12:02:36;;;;;;;12.98;9.93;;;;;;;9.23;39.17;96735.75;10165639;29;20064;-76
2020/12/31 12:07:56;;;;;;;11.98;9.20;;;;;;;8.86;39.65;96744.06;10152741;29;20146;-76
2020/12/31 12:13:17;;;;;;;13.77;10.35;;;;;;;8.69;41.33;96736.13;10181100;29;20071;-78
2020/12/31 12:18:37;;;;;;;12.60;9.48;;;;;;;8.68;41.46;96731.88;10180112;29;20060;-75
2020/12/31 12:23:57;;;;;;;11.13;8.77;;;;;;;8.54;41.32;96729.00;10179122;29;20056;-76
2020/12/31 12:29:17;;;;;;;11.13;8.13;;;;;;;8.35;41.70;96721.63;10165504;29;20530;-75
2020/12/31 12:34:37;;;;;;;10.65;8.07;;;;;;;8.57;42.71;96722.22;10151362;29;20092;-75
2020/12/31 12:39:57;;;;;;;11.95;8.40;;;;;;;8.65;42.42;96710.84;10164917;29;20418;-77
2020/12/31 12:45:17;;;;;;;11.65;8.40;;;;;;;8.67;42.40;96717.25;10178083;29;20116;-76
2020/12/31 12:50:37;;;;;;;11.20;7.78;;;;;;;8.76;41.85;96710.09;10173185;29;20146;-77
2020/12/31 12:55:57;;;;;;;9.50;7.50;;;;;;;8.72;42.11;96718.22;10218982;29;20063;-76
2020/12/31 13:01:16;;;;;;;9.82;7.35;;;;;;;8.52;42.04;96714.97;10219758;29;20071;-75
2020/12/31 13:06:37;;;;;;;10.43;7.38;;;;;;;8.33;42.07;96702.75;10204803;29;20150;-76
2020/12/31 13:12:00;;;;;;;8.55;6.72;;;;;;;8.19;42.09;96713.00;10191191;29;20066;-75
2020/12/31 13:17:23;;;;;;;10.13;6.85;;;;;;;8.19;43.23;96712.28;10203849;29;20067;-76
2020/12/31 13:22:43;;;;;;;7.75;6.30;;;;;;;8.11;42.51;96706.25;10219067;29;20062;-76
2020/12/31 13:28:03;;;;;;;8.35;5.35;;;;;;;8.16;42.54;96708.66;10203660;29;20060;-75
2020/12/31 13:33:23;;;;;;;6.47;5.18;;;;;;;8.07;42.43;96700.44;10190093;29;20148;-76
2020/12/31 13:38:43;;;;;;;7.38;5.60;;;;;;;8.09;42.69;96704.06;10202893;29;20549;-74
2020/12/31 13:44:04;;;;;;;7.43;5.38;;;;;;;7.98;42.84;96715.91;10202106;29;20056;-76
2020/12/31 13:49:23;;;;;;;7.45;5.68;;;;;;;7.55;43.45;96715.34;10857856;23;20055;-76
2020/12/31 13:54:43;;;;;;;10.32;5.90;;;;;;;7.30;43.56;96704.75;10161955;29;20068;-76
2020/12/31 14:00:05;;;;;;;8.10;5.65;;;;;;;7.20;43.88;96718.72;10150196;29;20056;-76
2020/12/31 14:05:25;;;;;;;8.10;5.30;;;;;;;7.01;43.97;96711.28;10177198;29;20532;-76
2020/12/31 14:10:45;;;;;;;7.43;5.32;;;;;;;6.77;44.48;96712.47;10173038;29;20060;-76
2020/12/31 14:16:05;;;;;;;8.73;5.95;;;;;;;6.60;44.81;96714.19;10163386;29;20064;-75
2020/12/31 14:21:30;;;;;;;9.48;5.47;;;;;;;6.46;44.95;96718.78;10166844;29;20056;-75
2020/12/31 14:26:50;;;;;;;8.45;5.28;;;;;;;6.35;45.20;96710.38;10180715;29;20473;-77
2020/12/31 14:32:10;;;;;;;7.90;5.03;;;;;;;6.22;45.51;96714.38;10148986;29;20060;-74
2020/12/31 14:37:33;;;;;;;8.07;5.63;;;;;;;6.12;45.16;96710.94;10161701;29;20060;-75
2020/12/31 14:42:54;;;;;;;8.00;5.30;;;;;;;5.94;45.13;96713.19;10161148;29;20107;-75
2020/12/31 14:48:15;;;;;;;9.32;5.65;;;;;;;5.71;45.38;96719.22;10177496;29;20151;-78
2020/12/31 14:59:34;;;;;;;8.70;5.22;;;;;;;5.06;47.00;96712.59;11025290;23;20070;-81
2020/12/31 15:05:17;;;;;;;10.95;6.50;;;;;;;4.81;48.35;96709.38;10165024;29;20083;-78
2020/12/31 15:10:40;;;;;;;15.18;7.75;;;;;;;4.54;48.02;96707.47;10168320;29;20064;-77
2020/12/31 15:16:05;;;;;;;10.75;7.43;;;;;;;4.25;48.76;96710.16;10175861;29;20075;-80
2020/12/31 15:27:17;;;;;;;11.98;8.85;;;;;;;3.87;51.13;96710.75;11128786;23;20090;-78
2020/12/31 15:32:36;;;;;;;12.60;8.40;;;;;;;3.76;49.97;96716.03;11110526;23;20899;-77
2020/12/31 15:45:03;;;;;;;;;;;;;;;;;;;;;
2020/12/31 15:56:39;;;;;;;13.93;9.48;;;;;;;3.25;51.41;96699.06;10590972;23;20068;-77
2020/12/31 16:14:39;;;;;;;15.07;11.27;;;;;;;2.95;52.00;96700.16;10604902;23;20062;-79
2020/12/31 16:19:59;;;;;;;17.05;11.27;;;;;;;2.87;52.79;96702.25;10153919;29;20175;-78
2020/12/31 16:44:53;;;;;;;17.63;12.30;;;;;;;2.39;54.89;96699.81;11275489;23;20161;-84
2020/12/31 16:50:59;;;;;;;18.88;12.50;;;;;;;2.34;54.20;96706.28;10114078;29;20061;-76
2020/12/31 16:56:20;;;;;;;19.95;14.43;;;;;;;2.26;55.63;96700.09;10086412;29;20071;-74
2020/12/31 17:01:40;;;;;;;18.77;14.05;;;;;;;2.21;55.44;96693.53;10101404;29;20061;-73
2020/12/31 17:07:00;;;;;;;20.02;14.13;;;;;;;2.14;55.47;96697.09;10100005;29;20148;-73
2020/12/31 17:12:20;;;;;;;18.85;13.52;;;;;;;2.08;55.64;96695.84;10099608;29;20065;-75
2020/12/31 17:17:40;;;;;;;19.30;13.18;;;;;;;2.07;55.47;96699.91;10074710;29;20060;-74
2020/12/31 17:41:45;;;;;;;20.25;14.18;;;;;;;1.78;57.02;96705.06;10184835;29;20119;-80
2020/12/31 17:53:33;;;;;;;20.45;14.48;;;;;;;1.67;57.15;96690.47;10294555;23;20063;-78
2020/12/31 17:58:53;;;;;;;20.10;14.60;;;;;;;1.62;57.43;96702.41;10177172;29;20056;-77
2020/12/31 18:04:12;;;;;;;18.75;13.60;;;;;;;1.59;58.20;96697.28;10199697;29;20071;-79
2020/12/31 18:09:33;;;;;;;22.38;14.63;;;;;;;1.61;57.84;96700.22;10199012;29;20060;-77
2020/12/31 18:14:53;;;;;;;25.15;16.25;;;;;;;1.53;57.44;96700.25;10177947;29;20063;-77
2020/12/31 18:20:16;;;;;;;22.98;14.77;;;;;;;1.48;57.94;96703.22;10194487;29;20068;-78
2020/12/31 18:25:47;;;;;;;26.35;16.85;;;;;;;1.47;57.66;96690.78;10202211;29;20070;-79
2020/12/31 18:37:13;;;;;;;;;;;;;;;;;;;;;
2020/12/31 18:42:48;;;;;;;29.30;19.27;;;;;;;1.39;58.08;96680.53;10124287;29;20069;-78
2020/12/31 18:54:00;;;;;;;29.40;18.33;;;;;;;1.34;58.17;96689.72;10917957;23;20466;-79
2020/12/31 19:05:55;;;;;;;26.23;17.13;;;;;;;1.25;58.40;96698.56;10306906;23;20064;-75
2020/12/31 19:11:15;;;;;;;26.92;17.77;;;;;;;1.20;58.83;96685.78;10154478;29;20127;-76
2020/12/31 19:16:35;;;;;;;26.75;17.40;;;;;;;1.11;58.82;96684.34;10181804;29;20072;-75
2020/12/31 19:21:55;;;;;;;28.30;18.33;;;;;;;1.06;59.10;96688.03;10167384;29;20139;-77
2020/12/31 19:27:16;;;;;;;31.35;19.85;;;;;;;1.06;59.13;96682.53;10167377;29;20071;-76
2020/12/31 19:32:36;;;;;;;31.65;19.95;;;;;;;1.07;59.11;96694.28;10181335;29;20071;-75
2020/12/31 19:37:56;;;;;;;25.60;17.38;;;;;;;1.07;59.78;96680.53;10193963;29;20402;-77
2020/12/31 19:43:16;;;;;;;26.17;17.83;;;;;;;1.08;59.17;96679.97;10179961;29;20064;-80
2020/12/31 19:48:36;;;;;;;41.00;26.30;;;;;;;1.02;59.61;96692.44;10184600;29;20064;-77
2020/12/31 19:53:56;;;;;;;27.83;19.58;;;;;;;1.02;59.24;96693.19;10180652;29;20067;-77
2020/12/31 19:59:15;;;;;;;32.90;22.05;;;;;;;0.99;59.96;96688.78;10180422;29;20066;-77
2020/12/31 20:04:36;;;;;;;35.78;23.10;;;;;;;1.00;59.47;96684.75;10181480;29;20413;-78
2020/12/31 20:09:55;;;;;;;39.38;24.25;;;;;;;0.91;60.04;96690.09;10180012;29;20064;-77
2020/12/31 20:15:15;;;;;;;38.10;25.45;;;;;;;0.85;60.07;96696.53;10165413;29;20406;-77
2020/12/31 20:20:36;;;;;;;37.28;23.83;;;;;;;0.82;60.34;96692.16;10191969;29;20499;-77
2020/12/31 20:25:56;;;;;;;35.25;23.90;;;;;;;0.82;60.61;96692.16;10165136;29;20112;-77
2020/12/31 20:31:22;;;;;;;34.05;23.15;;;;;;;0.75;60.61;96692.16;10179096;29;20557;-76
2020/12/31 20:36:42;;;;;;;44.65;27.88;;;;;;;0.74;60.71;96702.44;10178992;29;20090;-79
2020/12/31 20:42:11;;;;;;;44.20;28.42;;;;;;;0.79;60.70;96704.25;10178659;29;20200;-78
2020/12/31 20:47:30;;;;;;;43.75;29.90;;;;;;;0.78;60.52;96700.03;10177774;29;20056;-76
2020/12/31 20:52:53;;;;;;;38.70;25.60;;;;;;;0.75;60.75;96703.88;10177633;29;20115;-76
2020/12/31 20:58:13;;;;;;;37.00;23.17;;;;;;;0.85;61.21;96698.53;10178055;29;20088;-76
2020/12/31 21:03:32;;;;;;;34.60;22.52;;;;;;;0.92;61.13;96697.06;10177763;29;20064;-77
2020/12/31 21:08:52;;;;;;;30.42;20.95;;;;;;;0.95;61.27;96702.16;10178675;29;20455;-79
2020/12/31 21:14:12;;;;;;;32.78;21.48;;;;;;;0.94;61.15;96702.72;10168040;29;20143;-80
2020/12/31 21:19:32;;;;;;;30.02;19.50;;;;;;;0.93;61.37;96701.28;10179720;29;20064;-78
2020/12/31 21:24:52;;;;;;;32.03;20.42;;;;;;;0.90;61.69;96702.38;10186753;29;20142;-78
2020/12/31 21:30:12;;;;;;;25.42;16.75;;;;;;;0.85;61.21;96701.28;10247951;23;20064;-80
2020/12/31 21:35:32;;;;;;;24.42;15.90;;;;;;;0.79;61.72;96685.03;10189049;29;20507;-78
2020/12/31 21:40:55;;;;;;;23.50;15.02;;;;;;;0.76;62.22;96699.13;10187077;29;20064;-78
2020/12/31 21:46:48;;;;;;;23.85;14.98;;;;;;;0.75;62.02;96689.41;10199578;29;20051;-79
2020/12/31 21:52:27;;;;;;;23.85;14.93;;;;;;;0.73;61.61;96695.47;10438899;23;20072;-77
2020/12/31 21:57:49;;;;;;;24.35;15.13;;;;;;;0.69;62.41;96688.91;10121844;29;20507;-78
2020/12/31 22:22:41;;;;;;;25.42;15.82;;;;;;;0.44;62.73;96686.75;11642799;23;20244;-79
2020/12/31 22:28:23;;;;;;;25.33;15.82;;;;;;;0.33;63.28;96686.41;11806966;23;20374;-83
2020/12/31 22:34:24;;;;;;;23.70;15.90;;;;;;;0.33;62.80;96694.66;10245117;23;20052;31
2020/12/31 22:40:30;;;;;;;26.70;16.88;;;;;;;0.24;63.39;96691.16;11194609;23;20042;31
2020/12/31 23:05:37;;;;;;;28.50;18.80;;;;;;;-0.01;66.39;96668.31;10146786;23;20087;-80
2020/12/31 23:23:11;;;;;;;69.00;36.58;;;;;;;-0.21;65.52;96669.22;11738130;23;20047;-83
2020/12/31 23:47:30;;;;;;;38.05;23.10;;;;;;;-0.36;67.50;96654.25;10404524;23;20059;-76
2020/12/31 23:52:56;;;;;;;40.05;24.40;;;;;;;-0.39;66.14;96666.28;10166692;29;20099;-79
2020/12/31 23:58:19;;;;;;;40.03;24.60;;;;;;;-0.42;65.96;96661.91;10194830;29;20111;-75
